Flight Track Log - Related Links

Times and Time Zones

All times are in EDT time to prevent confusion due to time zone crossing. See the SWA720 flight status page for this flight to view local times or setup timezone preferences in your user account.

Time Position Orientation Groundspeed Altitude Reporting Facility
EDT Latitude Longitude Course Direction KTS MPH feet Rate Location/Type
Thu 10:58:07 AM 37.4000 -121.9667 141° Southeast 189 217 2,000  Level Northern Cal TRACON
Thu 10:59:07 AM 37.4500 -121.9333 28° Northeast 216 249 4,900 2,019 Climbing Northern Cal TRACON
Thu 11:01:38 AM 37.3211 -121.7778 136° Southeast 293 337 9,100 2,038 Climbing Oakland Center
Thu 11:02:39 AM 37.2525 -121.7050 140° Southeast 321 369 12,100 3,049 Climbing Oakland Center
Thu 11:03:00 AM 36.7165 -121.2318 141° Southeast  Level Estimated
Thu 11:03:40 AM 37.1767 -121.6178 137° Southeast 366 421 15,300  Level Oakland Center
Thu 11:04:41 AM 37.0986 -121.5347 140° Southeast 370 426 17,700 2,244 Climbing Oakland Center
Thu 11:05:43 AM 37.0172 -121.4444 138° Southeast 409 471 19,900 2,585 Climbing Oakland Center
Thu 11:06:44 AM 36.9156 -121.3294 138° Southeast 412 474 23,000 2,508 Climbing Oakland Center
Thu 11:07:45 AM 36.8225 -121.2331 140° Southeast 433 498 25,000 2,115 Climbing Oakland Center
Thu 11:08:46 AM 36.7258 -121.1244 138° Southeast 445 512 27,300 1,805 Climbing Oakland Center
Thu 11:09:48 AM 36.6303 -121.0222 139° Southeast 450 518 28,700 1,317 Climbing Oakland Center
Thu 11:10:49 AM 36.5281 -120.9156 140° Southeast 473 544 30,000 1,574 Climbing Oakland Center
Thu 11:11:50 AM 36.4253 -120.8008 138° Southeast 491 565 31,900 1,574 Climbing Oakland Center
Thu 11:12:51 AM 36.3233 -120.6911 139° Southeast 489 563 33,200 1,463 Climbing Oakland Center
Thu 11:13:53 AM 36.2175 -120.5797 140° Southeast 496 571 34,900 1,610 Climbing Oakland Center
Thu 11:14:54 AM 36.1142 -120.4689 139° Southeast 492 566 36,500 1,033 Climbing Oakland Center
Thu 11:15:55 AM 36.0122 -120.3622 140° Southeast 481 554 37,000 246 Climbing Oakland Center
Thu 11:16:56 AM 35.9092 -120.2558 140° Southeast 481 554 37,000  Level Oakland Center
Thu 11:17:58 AM 35.8078 -120.1461 139° Southeast 483 556 37,000  Level Oakland Center
Thu 11:18:59 AM 35.7033 -120.0394 140° Southeast 485 558 37,000  Level Oakland Center
Thu 11:20:00 AM 35.5972 -119.9344 141° Southeast 487 560 37,000  Level Oakland Center
Thu 11:21:02 AM 35.4633 -119.8189 145° Southeast 486 559 37,000  Level Oakland Center
Thu 11:22:03 AM 35.3522 -119.7242 145° Southeast 486 559 37,000  Level Oakland Center
Thu 11:23:04 AM 35.2403 -119.6283 145° Southeast 488 562 37,000 -984 Level Oakland Center
Thu 11:24:05 AM 35.1311 -119.5361 145° Southeast 479 551 35,000 -2,439 Descending Oakland Center
Thu 11:25:07 AM 35.0239 -119.4419 144° Southeast 475 547 32,000 -2,927 Descending Oakland Center
Thu 11:26:08 AM 34.9156 -119.3514 146° Southeast 473 544 29,000 -2,705 Descending Oakland Center
Thu 11:27:09 AM 34.8061 -119.2583 145° Southeast 476 548 26,500 -2,390 Descending Oakland Center
Thu 11:28:11 AM 34.7011 -119.1692 145° Southeast 467 537 24,100 -2,391 Descending Oakland Center
Thu 11:29:27 AM 34.5625 -119.0550 146° Southeast 444 511 21,000 -2,391 Descending Los Angeles Center
Thu 11:30:29 AM 34.4608 -118.9703 145° Southeast 415 478 18,600 -2,226 Descending Los Angeles Center
Thu 11:31:31 AM 34.3689 -118.8931 145° Southeast 401 461 16,400 -2,177 Descending Los Angeles Center
Thu 11:32:33 AM 34.2694 -118.8494 160° South 381 438 14,100 -2,129 Descending Los Angeles Center
Thu 11:33:35 AM 34.1633 -118.8100 163° South 372 428 12,000 -1,403 Descending Los Angeles Center
Thu 11:34:37 AM 34.0911 -118.7419 142° Southeast 341 392 11,200 -1,016 Descending Los Angeles Center
Thu 11:35:39 AM 34.0608 -118.6292 108° East 327 376 9,900 -1,452 Descending Los Angeles Center
Thu 11:36:41 AM 34.0317 -118.5328 110° East 311 358 8,200 -1,548 Descending Los Angeles Center
Thu 11:37:43 AM 34.0139 -118.4358 102° East 298 343 6,700 -1,935 Descending Los Angeles Center
Thu 11:38:45 AM 34.0231 -118.3361 84° East 276 318 4,200 -1,500 Descending Los Angeles Center
Thu 11:39:47 AM 34.0144 -118.2686 99° East 217 250 3,600 -919 Descending Los Angeles Center
Thu 11:40:49 AM 33.9731 -118.2967 209° Southwest 166 191 2,300 -1,161 Descending Los Angeles Center
Thu 11:41:51 AM 33.9592 -118.3394 249° West 147 169 1,200 -919 Descending Los Angeles Center
Thu 11:42:53 AM 33.9542 -118.3858 263° West 141 162 400 -532 Descending Los Angeles Center
Thu 11:43:55 AM 33.9503 -118.4308 264° West 139 160 100 -290 Descending Los Angeles Center
Thu 11:45:00 AM 33.9425 -118.4081 79° East  Level Estimated
Thu 11:52:00 AM 33.9425 -118.4081 228° Southwest  Level Estimated

Login

Don't have an account? Register now (free) for customized features, flight alerts, and more!